Time;durP1;ratioP1;P1;durP2;ratioP2;P2;SDS_P1;SDS_P2;PMS_P1;PMS_P2;Temp;Humidity;BMP_temperature;BMP_pressure;BME280_temperature;BME280_humidity;BME280_pressure;Samples;Min_cycle;Max_cycle;Signal;HPM_P1;HPM_P2
2023/04/07 04:19:11;;;;;;;9.45;6.18;;;;;;;0.85;87.50;98840.09;5133321;27;20379;-92
2023/04/07 04:21:37;;;;;;;10.82;6.95;;;;;;;0.77;88.64;98824.28;5117140;28;20031;-92
2023/04/07 04:24:03;;;;;;;11.57;7.40;;;;;;;0.82;89.03;98858.38;5118608;28;20096;-93
2023/04/07 04:26:29;;;;;;;9.18;6.55;;;;;;;0.68;89.20;98842.50;5115453;28;20039;-92
2023/04/07 04:28:55;;;;;;;11.68;6.95;;;;;;;0.52;90.38;98836.19;5116331;28;20561;-93
2023/04/07 04:31:21;;;;;;;11.13;7.07;;;;;;;0.53;91.11;98837.03;5115889;28;20059;-92
2023/04/07 04:33:47;;;;;;;10.13;6.93;;;;;;;0.37;90.34;98820.25;5116124;28;20032;-94
2023/04/07 04:36:14;;;;;;;14.20;6.53;;;;;;;0.43;91.04;98854.34;5114292;28;20065;-94
2023/04/07 04:38:40;;;;;;;10.85;6.30;;;;;;;0.46;92.21;98866.59;5115658;28;20042;-92
2023/04/07 04:41:06;;;;;;;10.45;6.60;;;;;;;0.28;91.82;98846.25;5118041;28;20047;-93
2023/04/07 04:43:32;;;;;;;10.18;6.70;;;;;;;0.38;92.67;98869.97;5115309;28;20027;-94
2023/04/07 04:45:58;;;;;;;12.38;7.65;;;;;;;0.14;92.88;98828.63;5115301;28;20081;-94
2023/04/07 04:48:24;;;;;;;11.48;6.75;;;;;;;0.19;93.23;98847.00;5119199;28;20039;-93
2023/04/07 04:50:50;;;;;;;9.27;6.50;;;;;;;0.23;94.16;98850.56;5121743;28;20134;-93
2023/04/07 04:53:17;;;;;;;10.27;6.50;;;;;;;0.23;94.60;98858.41;5115315;27;20040;-93
2023/04/07 04:55:46;;;;;;;10.82;6.95;;;;;;;0.36;94.49;98876.03;5115434;28;20385;-93
2023/04/07 04:58:11;;;;;;;12.40;6.80;;;;;;;0.42;94.38;98881.38;5115727;28;20036;-94
2023/04/07 05:00:37;;;;;;;10.38;6.70;;;;;;;0.26;94.56;98843.66;5115689;28;20044;-94
2023/04/07 05:03:03;;;;;;;10.48;6.63;;;;;;;0.42;94.06;98868.28;5115749;28;20391;-94
2023/04/07 05:05:29;;;;;;;9.38;6.15;;;;;;;0.28;94.27;98852.38;5115392;28;20049;-93
2023/04/07 05:07:55;;;;;;;10.93;6.75;;;;;;;0.33;94.61;98860.31;5115437;28;20130;-93
2023/04/07 05:10:22;;;;;;;12.35;7.93;;;;;;;0.25;94.63;98854.06;5115751;28;20035;-92
2023/04/07 05:12:48;;;;;;;9.75;6.70;;;;;;;0.29;94.94;98853.25;5119236;28;20020;-90
2023/04/07 05:15:15;;;;;;;12.27;7.05;;;;;;;0.41;94.37;98879.59;5115171;28;20039;-94
2023/04/07 05:17:41;;;;;;;11.82;7.38;;;;;;;0.29;94.43;98859.38;5113284;28;20039;-94
2023/04/07 05:20:09;;;;;;;12.20;7.93;;;;;;;0.53;94.19;98889.38;5114893;28;20415;-94
2023/04/07 05:22:35;;;;;;;12.48;7.22;;;;;;;0.51;93.69;98870.16;5115328;28;20548;-94
2023/04/07 05:25:01;;;;;;;15.15;8.13;;;;;;;0.53;93.20;98878.91;5115809;27;20040;-95
2023/04/07 05:27:28;;;;;;;11.00;6.93;;;;;;;0.47;92.99;98874.44;5114941;28;20036;-94
2023/04/07 05:29:54;;;;;;;12.98;7.75;;;;;;;0.46;93.33;98870.09;5105487;28;20050;-93
2023/04/07 05:32:20;;;;;;;11.02;6.50;;;;;;;0.65;93.32;98888.66;5100865;28;20040;-93
2023/04/07 05:34:46;;;;;;;13.57;8.27;;;;;;;0.74;93.00;98904.53;5100849;28;20043;-93
2023/04/07 05:37:12;;;;;;;11.63;7.55;;;;;;;0.69;93.08;98883.50;5105169;28;20035;-93
2023/04/07 05:39:37;;;;;;;10.55;7.75;;;;;;;0.80;93.57;98884.53;5096384;28;20488;-94
2023/04/07 05:42:03;;;;;;;13.43;7.75;;;;;;;0.72;93.09;98846.03;5101025;28;20059;-92
2023/04/07 05:44:31;;;;;;;12.02;7.43;;;;;;;0.95;93.19;98867.25;5100575;28;20039;-94
2023/04/07 05:46:57;;;;;;;10.70;7.38;;;;;;;1.12;92.88;98862.25;5099459;28;20032;-93
2023/04/07 05:49:23;;;;;;;14.02;8.38;;;;;;;1.20;92.52;98856.22;5100693;28;20049;-92
2023/04/07 05:51:48;;;;;;;12.35;8.32;;;;;;;1.36;91.67;98849.41;5100901;28;20049;-94
2023/04/07 05:54:15;;;;;;;11.93;8.07;;;;;;;1.68;90.92;98880.34;5099156;28;20031;-93
2023/04/07 05:56:41;;;;;;;11.00;7.45;;;;;;;1.63;90.39;98838.34;5100110;28;20502;-94
2023/04/07 05:59:07;;;;;;;10.40;7.38;;;;;;;2.05;88.92;98892.03;5100873;28;20062;-95
2023/04/07 06:01:34;;;;;;;12.77;7.50;;;;;;;2.11;87.65;98872.00;5100378;28;20047;-93
2023/04/07 06:04:02;;;;;;;13.57;8.30;;;;;;;2.11;86.50;98849.25;5104176;28;20055;-93
2023/04/07 06:06:28;;;;;;;14.65;8.55;;;;;;;2.36;85.76;98879.19;5100825;28;20042;-93
2023/04/07 06:08:54;;;;;;;14.35;9.45;;;;;;;2.38;84.70;98856.44;5115031;28;20514;-94
2023/04/07 06:11:20;;;;;;;15.38;9.52;;;;;;;2.45;83.93;98845.16;5105321;28;20040;-94
2023/04/07 06:13:46;;;;;;;14.73;8.85;;;;;;;2.67;82.79;98861.91;5100638;28;20056;-94
2023/04/07 06:16:11;;;;;;;13.63;8.38;;;;;;;2.93;82.28;98874.31;5100616;28;20069;-94
2023/04/07 06:18:39;;;;;;;13.80;8.88;;;;;;;3.02;80.63;98839.31;5100456;28;20040;-93
2023/04/07 06:21:05;;;;;;;16.08;9.23;;;;;;;3.33;80.19;98863.97;5100445;28;20158;-95
2023/04/07 06:23:31;;;;;;;12.55;9.27;;;;;;;3.39;79.44;98856.09;5100504;28;20491;-93
2023/04/07 06:25:57;;;;;;;12.05;8.45;;;;;;;3.55;78.71;98853.50;5100407;28;20031;-94
2023/04/07 06:28:23;;;;;;;11.45;8.48;;;;;;;3.70;78.17;98859.66;5099885;28;20071;-93
2023/04/07 06:30:49;;;;;;;13.02;8.63;;;;;;;3.99;77.65;98873.72;5096016;28;20043;-93
2023/04/07 06:33:15;;;;;;;14.90;9.45;;;;;;;3.99;76.64;98857.94;5103061;28;20075;-92
2023/04/07 06:35:42;;;;;;;18.00;9.60;;;;;;;4.27;75.95;98885.16;5099225;28;20064;-93
2023/04/07 06:38:10;;;;;;;15.23;8.50;;;;;;;4.38;75.00;98871.97;5098992;28;21354;-92
2023/04/07 06:40:36;;;;;;;14.48;9.27;;;;;;;4.67;74.10;98896.53;5101485;28;20065;-95
2023/04/07 06:43:02;;;;;;;14.80;9.25;;;;;;;4.79;73.25;98878.97;5099335;28;20043;-92
2023/04/07 06:45:28;;;;;;;14.25;8.80;;;;;;;4.81;71.46;98851.72;5099277;28;20036;-92
2023/04/07 06:47:54;;;;;;;12.05;8.43;;;;;;;5.14;69.34;98877.13;5099558;28;20046;-93
2023/04/07 06:50:21;;;;;;;13.60;8.60;;;;;;;5.25;69.66;98863.03;5098888;28;20088;-93
2023/04/07 06:52:50;;;;;;;12.15;8.82;;;;;;;5.62;69.07;98892.72;5102187;28;20039;-92
2023/04/07 06:55:15;;;;;;;13.85;8.75;;;;;;;5.70;67.11;98880.38;5100780;28;20051;-93
2023/04/07 06:57:41;;;;;;;15.40;9.18;;;;;;;5.86;66.20;98878.50;5100547;28;20040;-93
2023/04/07 07:00:09;;;;;;;16.33;9.85;;;;;;;5.94;65.63;98854.69;5100604;28;20093;-94
2023/04/07 07:03:01;;;;;;;13.27;9.02;;;;;;;6.31;65.65;98875.56;5103564;28;20043;-94
2023/04/07 07:06:02;;;;;;;12.00;8.20;;;;;;;6.30;61.08;98845.66;5097383;28;20447;-94
2023/04/07 07:13:38;;;;;;;15.02;9.82;;;;;;;6.88;61.96;98853.91;4940837;29;20588;-94
2023/04/07 07:16:29;;;;;;;13.32;9.93;;;;;;;7.17;61.49;98846.50;4852140;29;20093;-96
2023/04/07 07:19:09;;;;;;;;;;;;;;;;;;;;;
2023/04/07 07:21:36;;;;;;;13.38;9.85;;;;;;;7.45;60.51;98850.56;4880000;29;20495;-93
2023/04/07 07:27:23;;;;;;;12.98;8.02;;;;;;;7.82;58.69;98861.53;4861623;29;20064;-92
2023/04/07 07:29:55;;;;;;;11.93;7.82;;;;;;;7.44;59.25;98865.59;4910177;29;20107;-93
2023/04/07 07:32:22;;;;;;;12.48;8.27;;;;;;;7.50;58.78;98846.94;4919984;29;20102;-92
2023/04/07 07:35:03;;;;;;;12.65;7.50;;;;;;;7.96;56.58;98870.16;4920718;29;20135;-91
2023/04/07 07:37:34;;;;;;;11.63;7.50;;;;;;;8.25;56.85;98860.88;4920935;29;20480;-92
2023/04/07 07:40:31;;;;;;;10.68;7.63;;;;;;;8.57;55.69;98870.09;4919598;29;20055;-93
2023/04/07 07:43:38;;;;;;;14.18;8.07;;;;;;;8.67;54.77;98829.25;4920594;29;20540;-92
2023/04/07 07:46:10;;;;;;;10.18;7.60;;;;;;;9.07;53.71;98862.13;4921137;28;20042;-93
2023/04/07 07:48:45;;;;;;;13.23;8.00;;;;;;;9.06;53.06;98824.06;5017128;28;20117;-93
2023/04/07 07:51:11;;;;;;;13.15;7.63;;;;;;;8.84;53.03;98829.81;5022958;28;20547;-90
2023/04/07 07:53:49;;;;;;;12.50;8.20;;;;;;;9.14;52.28;98842.50;5097732;28;20138;-93
2023/04/07 07:56:22;;;;;;;15.55;7.65;;;;;;;9.42;51.75;98853.44;5096686;28;20131;-91
2023/04/07 07:59:09;;;;;;;11.13;7.57;;;;;;;9.64;52.00;98867.13;5098637;28;20047;-91
2023/04/07 08:01:38;;;;;;;11.45;7.55;;;;;;;9.68;49.78;98854.66;5095679;28;20140;-92
2023/04/07 08:04:24;;;;;;;9.75;6.97;;;;;;;9.11;50.01;98835.50;5097471;28;20035;-92
2023/04/07 08:07:06;;;;;;;9.52;6.57;;;;;;;8.68;50.63;98846.06;5098383;28;20123;-92
2023/04/07 08:13:29;;;;;;;9.43;6.50;;;;;;;9.23;49.54;98821.09;4974343;28;20094;-93
2023/04/07 08:17:29;;;;;;;10.52;6.80;;;;;;;9.79;50.45;98866.78;4972846;28;20149;-91
2023/04/07 08:20:50;;;;;;;10.85;7.57;;;;;;;9.28;49.40;98810.38;4966046;28;20050;-92
2023/04/07 08:26:48;;;;;;;11.02;7.30;;;;;;;9.36;50.88;98819.06;4955943;28;20174;-91
2023/04/07 08:29:17;;;;;;;12.77;8.10;;;;;;;9.31;50.88;98858.09;4957602;28;20527;-91
2023/04/07 08:31:48;;;;;;;12.30;8.27;;;;;;;9.60;50.78;98828.25;4957359;28;20050;-92
2023/04/07 08:34:56;;;;;;;11.23;7.47;;;;;;;10.22;50.34;98856.94;4957500;28;20066;-94
2023/04/07 08:37:49;;;;;;;8.95;6.28;;;;;;;10.63;48.02;98839.09;4905767;29;20048;-92
2023/04/07 08:40:35;;;;;;;11.00;6.45;;;;;;;10.48;46.23;98803.16;4951948;28;20046;-90
2023/04/07 08:43:19;;;;;;;;;;;;;;;10.94;46.16;98838.28;4901514;29;20512;-92
2023/04/07 08:45:46;;;;;;;13.00;6.82;;;;;;;11.02;45.72;98810.53;4954732;28;20446;-91
2023/04/07 08:48:54;;;;;;;12.50;7.65;;;;;;;11.11;46.06;98798.75;5012402;28;20039;-93
2023/04/07 08:51:51;;;;;;;11.45;7.72;;;;;;;11.36;46.10;98788.25;5099411;28;20078;-91
2023/04/07 08:54:24;;;;;;;10.60;7.97;;;;;;;10.94;47.24;98804.56;5058697;28;20092;-93
2023/04/07 08:57:04;;;;;;;12.60;8.50;;;;;;;10.87;47.16;98797.69;5099123;28;20456;-93
2023/04/07 09:00:02;;;;;;;;;;;;;;;;;;;;;
2023/04/07 09:02:22;;;;;;;10.05;6.95;;;;;;;11.72;46.07;98798.72;5091597;28;20055;-93
2023/04/07 09:05:13;;;;;;;11.68;6.90;;;;;;;11.56;45.12;98808.97;5103177;28;20039;-93
2023/04/07 09:07:48;;;;;;;13.88;7.50;;;;;;;11.84;45.56;98793.00;5101275;28;20091;-94
2023/04/07 09:10:44;;;;;;;11.88;7.20;;;;;;;12.29;44.91;98815.56;5106792;28;20552;-93
2023/04/07 09:13:35;;;;;;;11.65;7.55;;;;;;;12.22;43.69;98774.03;5103479;28;20030;-94
2023/04/07 09:16:09;;;;;;;10.95;7.03;;;;;;;12.27;44.22;98777.41;5060323;28;20618;-91
2023/04/07 09:27:23;;;;;;;9.20;6.53;;;;;;;12.42;42.79;98792.03;4949308;29;20075;-93
2023/04/07 09:30:58;;;;;;;10.00;6.45;;;;;;;12.01;41.79;98733.84;4945764;28;20088;-95
2023/04/07 09:48:06;;;;;;;10.88;7.07;;;;;;;12.23;41.43;98742.00;4901676;29;20041;-93
2023/04/07 09:51:04;;;;;;;9.70;6.20;;;;;;;12.39;42.41;98739.66;4829917;29;20503;-93
2023/04/07 09:54:08;;;;;;;9.82;6.45;;;;;;;12.14;41.94;98707.63;4832539;29;20440;-93
2023/04/07 09:57:23;;;;;;;10.20;6.78;;;;;;;12.29;40.91;98703.56;4830759;29;20106;-96
2023/04/07 10:03:14;;;;;;;9.00;6.30;;;;;;;13.27;40.23;98712.41;4851107;29;20053;-92
2023/04/07 10:05:41;;;;;;;12.18;9.05;;;;;;;13.46;39.32;98701.91;4863263;29;20049;-92
2023/04/07 10:08:11;;;;;;;13.02;8.30;;;;;;;13.65;38.35;98700.25;4847014;29;20064;-92
2023/04/07 10:10:50;;;;;;;11.27;6.82;;;;;;;13.54;38.76;98697.16;4845934;29;20324;-93
2023/04/07 10:13:20;;;;;;;10.35;7.10;;;;;;;13.11;38.78;98704.13;4857486;29;20036;-93
2023/04/07 10:15:51;;;;;;;9.48;6.25;;;;;;;13.50;38.85;98711.56;4918811;29;20040;-92
2023/04/07 10:18:59;;;;;;;9.20;6.80;;;;;;;13.54;39.36;98681.13;4921038;29;20044;-92
2023/04/07 10:21:53;;;;;;;9.55;6.82;;;;;;;13.88;38.13;98687.72;4874945;29;20044;-94
2023/04/07 10:25:01;;;;;;;11.32;7.15;;;;;;;14.11;38.12;98700.13;4989757;28;20091;-95
2023/04/07 10:28:07;;;;;;;11.60;7.05;;;;;;;13.88;37.88;98672.59;5055910;28;20085;-94
2023/04/07 10:31:11;;;;;;;9.13;5.43;;;;;;;13.98;36.66;98714.00;5093053;28;20047;-92
2023/04/07 10:33:48;;;;;;;8.30;5.65;;;;;;;14.03;36.30;98670.16;5098291;28;20044;-94
2023/04/07 10:36:57;;;;;;;;;;;;;;;;;;;;;
2023/04/07 10:39:34;;;;;;;9.23;5.97;;;;;;;13.86;35.67;98674.44;5096719;28;20044;-92
2023/04/07 10:42:39;;;;;;;8.52;6.30;;;;;;;13.94;36.38;98644.69;5099781;28;20066;-93
2023/04/07 10:45:54;;;;;;;8.93;5.65;;;;;;;14.34;36.23;98672.41;5060076;28;20048;-95
2023/04/07 10:48:57;;;;;;;;;;;;;;;;;;;;;
2023/04/07 10:51:57;;;;;;;10.00;5.93;;;;;;;13.75;36.65;98639.28;5064595;28;20430;-93
2023/04/07 10:54:57;;;;;;;11.98;6.00;;;;;;;14.09;36.03;98665.44;5101684;28;20142;-93
2023/04/07 11:05:27;;;;;;;12.77;7.40;;;;;;;14.54;35.69;98612.66;4940821;28;20046;-94
2023/04/07 11:12:44;;;;;;;7.85;5.15;;;;;;;14.79;33.54;98665.97;4829507;29;20644;-94
2023/04/07 11:20:01;;;;;;;7.15;4.40;;;;;;;14.46;31.78;98609.44;4821971;29;20085;-94
2023/04/07 11:22:45;;;;;;;7.00;5.03;;;;;;;14.87;32.57;98642.38;4791861;29;20150;-94
2023/04/07 11:25:26;;;;;;;6.97;4.63;;;;;;;14.95;33.32;98640.19;4786824;29;20070;-93
2023/04/07 11:28:13;;;;;;;6.47;4.70;;;;;;;14.83;33.32;98623.84;4761518;30;20077;-94
2023/04/07 11:30:44;;;;;;;7.32;4.53;;;;;;;14.11;32.06;98607.41;4753225;30;20144;-92
2023/04/07 11:33:42;;;;;;;10.35;4.72;;;;;;;14.49;32.51;98610.19;4748956;30;20045;-94
2023/04/07 11:40:47;;;;;;;7.15;4.28;;;;;;;14.66;33.53;98605.88;4763529;30;20453;-94
2023/04/07 11:43:37;;;;;;;6.05;4.20;;;;;;;14.97;32.17;98598.16;4815237;29;20568;-92
2023/04/07 11:47:02;;;;;;;;;;;;;;;;;;;;;
2023/04/07 11:50:09;;;;;;;7.00;4.38;;;;;;;15.24;31.18;98594.22;4736279;30;20052;-92
2023/04/07 11:53:00;;;;;;;7.30;4.80;;;;;;;15.13;31.53;98600.09;4661538;30;20051;-93
2023/04/07 11:56:25;;;;;;;;;;;;;;;;;;;;;
2023/04/07 11:59:21;;;;;;;7.60;5.13;;;;;;;15.03;32.29;98582.72;4683552;30;20148;-94
2023/04/07 12:06:23;;;;;;;7.22;4.32;;;;;;;15.27;30.59;98562.81;4767181;30;20138;-92
2023/04/07 12:09:36;;;;;;;;;;;;;;;;;;;;;
2023/04/07 12:16:21;;;;;;;10.35;4.63;;;;;;;15.09;32.44;98552.97;4801442;29;20472;-94
2023/04/07 12:22:21;;;;;;;8.65;5.80;;;;;;;15.77;29.54;98580.00;4817255;29;20054;-93
2023/04/07 12:24:57;;;;;;;6.28;4.15;;;;;;;15.64;30.49;98538.66;4746878;30;20062;-93
2023/04/07 12:27:35;;;;;;;10.03;6.30;;;;;;;15.82;30.84;98532.34;4743745;30;20140;-94
2023/04/07 12:30:05;;;;;;;7.63;4.65;;;;;;;15.91;30.04;98539.03;4782176;30;20530;-93
2023/04/07 12:33:03;;;;;;;6.80;4.18;;;;;;;16.13;30.21;98545.00;4809127;29;20064;-93
2023/04/07 12:35:55;;;;;;;7.80;5.40;;;;;;;16.11;29.27;98522.78;4854401;29;20487;-94
2023/04/07 12:38:33;;;;;;;6.18;4.22;;;;;;;16.46;28.24;98554.88;4871329;29;20431;-94
2023/04/07 12:41:17;;;;;;;8.30;4.45;;;;;;;16.17;28.07;98514.38;4870634;29;20196;-95
2023/04/07 12:44:41;;;;;;;6.50;3.72;;;;;;;16.13;27.97;98536.94;4870865;29;20135;-92
2023/04/07 12:47:17;;;;;;;4.90;3.60;;;;;;;15.81;28.35;98502.00;4876851;29;20049;-94
2023/04/07 12:50:05;;;;;;;7.38;4.53;;;;;;;16.02;28.43;98505.34;4885055;29;20045;-94
2023/04/07 12:52:58;;;;;;;6.18;3.90;;;;;;;16.00;27.37;98504.56;4904091;29;20066;-95
2023/04/07 12:55:37;;;;;;;;;;;;;;;;;;;;;
2023/04/07 12:58:19;;;;;;;6.32;3.80;;;;;;;16.18;27.31;98473.19;4926541;28;20198;-95
2023/04/07 13:01:03;;;;;;;5.00;3.20;;;;;;;16.32;27.79;98475.13;5030153;28;20064;-94
2023/04/07 13:03:47;;;;;;;6.07;3.55;;;;;;;16.39;27.67;98481.00;5049646;28;20173;-93
2023/04/07 13:07:08;;;;;;;;;;;;;;;;;;;;;
2023/04/07 13:10:00;;;;;;;5.43;3.85;;;;;;;15.94;26.50;98475.41;5006221;28;20444;-93
2023/04/07 13:13:11;;;;;;;5.35;3.60;;;;;;;15.68;27.64;98498.19;4977234;28;20512;-95
2023/04/07 13:19:20;;;;;;;7.53;3.60;;;;;;;16.68;28.43;98476.72;4976189;28;20114;-94
2023/04/07 13:22:07;;;;;;;6.20;3.50;;;;;;;16.26;27.95;98450.44;4984674;28;20047;-94
2023/04/07 13:24:40;;;;;;;9.13;3.92;;;;;;;16.41;28.46;98449.59;4968608;28;20051;-94
2023/04/07 13:34:12;;;;;;;7.00;3.47;;;;;;;17.29;27.28;98455.34;4925440;29;20044;-95
2023/04/07 13:36:55;;;;;;;5.40;3.72;;;;;;;17.50;26.63;98461.22;4936432;29;20102;-92
2023/04/07 13:39:58;;;;;;;6.05;3.17;;;;;;;17.30;26.55;98441.78;4960050;28;20043;-94
2023/04/07 13:43:45;;;;;;;5.90;3.42;;;;;;;17.68;25.45;98453.88;4962084;29;20047;-94
2023/04/07 13:46:20;;;;;;;6.25;3.80;;;;;;;17.68;24.95;98449.38;4943862;29;20058;-94
2023/04/07 13:48:46;;;;;;;5.55;3.63;;;;;;;17.28;24.26;98458.97;4960447;28;20383;-93
2023/04/07 13:51:14;;;;;;;5.50;3.65;;;;;;;17.34;23.88;98450.53;5021712;28;20494;-92
2023/04/07 13:54:37;;;;;;;4.73;3.20;;;;;;;17.13;24.16;98417.75;5021461;28;20101;-91
2023/04/07 13:57:19;;;;;;;4.90;3.00;;;;;;;17.14;23.27;98462.47;5018902;28;20029;-94
2023/04/07 14:00:00;;;;;;;7.82;3.40;;;;;;;16.61;24.11;98443.97;5019700;28;20046;-92
2023/04/07 14:02:28;;;;;;;7.25;3.50;;;;;;;16.54;24.40;98444.41;5013368;28;20128;-93
2023/04/07 14:04:54;;;;;;;5.30;3.13;;;;;;;16.46;22.68;98419.81;5020165;28;20053;-93
2023/04/07 14:07:26;;;;;;;4.43;3.00;;;;;;;16.25;23.60;98420.06;5043293;28;20404;-92
2023/04/07 14:09:53;;;;;;;5.75;3.22;;;;;;;16.36;24.77;98419.47;5081490;28;20055;-93
2023/04/07 14:12:22;;;;;;;4.72;2.90;;;;;;;16.02;23.62;98413.28;5083521;28;20048;-93
2023/04/07 14:15:08;;;;;;;4.95;3.40;;;;;;;15.98;24.51;98442.09;5083308;28;20055;-94
2023/04/07 14:18:13;;;;;;;4.03;2.70;;;;;;;15.89;24.42;98450.63;5084184;28;20062;-95
2023/04/07 14:21:24;;;;;;;4.80;2.95;;;;;;;15.98;24.85;98403.66;5044753;28;20554;-94
2023/04/07 14:24:15;;;;;;;5.28;2.80;;;;;;;16.25;24.45;98385.19;4996901;28;20103;-94
2023/04/07 14:30:47;;;;;;;6.13;3.30;;;;;;;16.93;23.85;98437.72;4877170;29;20053;-92
2023/04/07 14:42:03;;;;;;;4.35;2.88;;;;;;;16.09;24.34;98387.00;4844986;29;20068;-93
2023/04/07 14:49:04;;;;;;;4.82;3.35;;;;;;;15.55;27.34;98381.88;4828332;29;20093;-94
2023/04/07 14:51:49;;;;;;;5.88;4.38;;;;;;;15.43;26.80;98382.50;4833937;29;21401;-95
2023/04/07 14:54:57;;;;;;;4.45;2.83;;;;;;;15.47;27.11;98384.09;4806239;29;20053;-91
2023/04/07 14:57:50;;;;;;;5.60;4.07;;;;;;;15.86;27.30;98412.41;4847442;29;20064;-93
2023/04/07 15:00:21;;;;;;;7.05;3.80;;;;;;;15.78;27.88;98383.31;4810286;29;20113;-94
2023/04/07 15:06:16;;;;;;;6.65;3.28;;;;;;;15.86;28.17;98362.31;4884014;28;20035;-93
2023/04/07 15:08:52;;;;;;;5.13;2.97;;;;;;;16.07;28.83;98372.78;4961960;28;20126;-92
2023/04/07 15:11:21;;;;;;;4.93;2.95;;;;;;;16.29;28.96;98397.50;4938505;29;20185;-93
2023/04/07 15:14:42;;;;;;;4.63;2.85;;;;;;;16.10;28.80;98411.06;5006670;28;20049;-94
2023/04/07 15:17:13;;;;;;;5.85;2.97;;;;;;;16.03;30.18;98404.31;5022038;28;20110;-93
2023/04/07 15:19:47;;;;;;;5.07;3.22;;;;;;;15.70;30.55;98391.75;5030788;28;20065;-93
2023/04/07 15:22:54;;;;;;;7.47;4.15;;;;;;;15.59;30.38;98370.91;5018636;28;20048;-92
2023/04/07 15:25:25;;;;;;;5.25;3.00;;;;;;;15.78;30.96;98400.25;5019353;28;20037;-94
2023/04/07 15:27:54;;;;;;;3.70;2.63;;;;;;;15.09;31.59;98386.94;5023136;28;20045;-93
2023/04/07 15:30:20;;;;;;;3.87;2.70;;;;;;;15.22;33.09;98382.69;5029826;28;20045;-92
2023/04/07 15:33:23;;;;;;;4.03;2.70;;;;;;;15.43;32.70;98377.16;5028699;28;20670;-93
2023/04/07 15:35:49;;;;;;;4.93;3.00;;;;;;;15.86;31.62;98390.97;4966435;28;20043;-95
2023/04/07 15:38:16;;;;;;;4.63;2.78;;;;;;;16.18;31.06;98406.13;5014634;28;20045;-94
2023/04/07 15:40:44;;;;;;;4.00;2.65;;;;;;;15.93;30.48;98371.75;5028317;28;20521;-93
2023/04/07 15:43:10;;;;;;;4.05;2.63;;;;;;;16.27;30.03;98375.25;5029292;28;20065;-93
2023/04/07 15:48:34;;;;;;;4.03;2.75;;;;;;;15.99;30.72;98410.78;5013485;28;20063;-95
2023/04/07 15:51:00;;;;;;;6.13;2.60;;;;;;;15.94;30.72;98404.78;5027974;28;20053;-93
2023/04/07 15:53:36;;;;;;;3.92;2.60;;;;;;;15.62;31.65;98404.69;5027936;28;20072;-94
2023/04/07 15:56:18;;;;;;;4.40;2.75;;;;;;;15.09;31.97;98365.50;5029374;28;20045;-93
2023/04/07 15:58:44;;;;;;;4.35;2.65;;;;;;;15.09;32.20;98411.91;5028159;28;20148;-93
2023/04/07 16:01:11;;;;;;;6.82;2.60;;;;;;;14.74;33.21;98381.56;5025744;28;20052;-94
2023/04/07 16:03:43;;;;;;;;;;;;;;;15.00;32.69;98410.56;5024629;28;20045;-93
2023/04/07 16:07:09;;;;;;;5.85;3.10;;;;;;;14.70;33.34;98364.81;5025714;28;19925;-95
2023/04/07 16:20:48;;;;;;;5.93;3.03;;;;;;;14.32;33.25;98374.69;5029877;28;20496;-95
2023/04/07 16:24:07;;;;;;;6.78;3.15;;;;;;;14.26;33.50;98367.81;4978584;28;20055;-94
2023/04/07 16:27:00;;;;;;;;;;;;;;;;;;;;;
2023/04/07 16:30:27;;;;;;;5.85;3.40;;;;;;;14.59;34.28;98396.56;4921711;29;19930;-94
2023/04/07 16:33:02;;;;;;;8.43;3.78;;;;;;;14.32;34.57;98398.78;4924288;29;20050;-94
2023/04/07 16:35:40;;;;;;;8.32;4.03;;;;;;;14.06;35.02;98384.84;4924986;29;20072;-93
2023/04/07 16:38:07;;;;;;;5.55;3.08;;;;;;;14.00;35.11;98385.13;4924915;29;20058;-94
2023/04/07 16:40:36;;;;;;;8.52;3.28;;;;;;;13.97;35.48;98366.56;4935807;29;20468;-92
2023/04/07 16:43:07;;;;;;;5.60;3.10;;;;;;;14.01;35.36;98378.84;4930273;29;20576;-93
2023/04/07 16:45:33;;;;;;;4.03;3.05;;;;;;;14.10;35.42;98413.16;4926742;29;20136;-93
2023/04/07 16:48:02;;;;;;;5.97;3.75;;;;;;;14.15;35.22;98375.50;4923996;29;20063;-94
2023/04/07 16:50:30;;;;;;;7.60;3.58;;;;;;;14.18;35.22;98402.97;4958287;29;20023;-93
2023/04/07 16:53:11;;;;;;;5.03;3.40;;;;;;;14.05;35.40;98423.22;4961416;28;20110;-94
2023/04/07 16:55:46;;;;;;;5.53;3.33;;;;;;;14.04;35.75;98386.72;4997722;28;20097;-93
2023/04/07 16:58:46;;;;;;;5.15;3.28;;;;;;;14.04;35.80;98425.94;4995373;28;20042;-94
2023/04/07 17:01:12;;;;;;;6.70;3.20;;;;;;;13.85;36.24;98432.13;5017248;28;20504;-92
2023/04/07 17:03:38;;;;;;;6.20;3.10;;;;;;;13.64;36.88;98423.31;5083343;28;20036;-94
2023/04/07 17:10:07;;;;;;;3.90;2.65;;;;;;;13.43;37.63;98440.28;4987290;28;20048;-93
2023/04/07 17:12:39;;;;;;;5.00;3.33;;;;;;;13.21;38.13;98405.63;4995515;28;20072;-94
2023/04/07 17:15:20;;;;;;;;;;;;;;;13.30;38.20;98434.63;4997446;28;20062;-93
2023/04/07 17:17:49;;;;;;;4.65;3.08;;;;;;;12.95;38.85;98400.44;4999279;28;20373;-94
2023/04/07 17:20:35;;;;;;;6.80;3.35;;;;;;;13.12;39.45;98445.13;4996474;28;20046;-93
2023/04/07 17:23:22;;;;;;;5.10;3.60;;;;;;;13.03;39.45;98442.81;4999725;28;20096;-94
2023/04/07 17:29:39;;;;;;;5.65;3.15;;;;;;;12.79;40.40;98450.06;5001613;28;19945;-94
2023/04/07 17:33:10;;;;;;;;;;;;;;;;;;;;;
2023/04/07 17:44:41;;;;;;;4.20;2.72;;;;;;;12.28;43.53;98433.44;4856275;29;20041;-94
2023/04/07 17:55:13;;;;;;;4.55;2.80;;;;;;;12.02;45.92;98452.25;4901568;29;20035;-95
2023/04/07 17:58:08;;;;;;;4.20;3.00;;;;;;;12.18;47.30;98503.16;4889216;29;20048;-94
2023/04/07 18:01:05;;;;;;;6.30;2.78;;;;;;;12.08;47.79;98495.50;4902496;29;20128;-94
2023/04/07 18:04:24;;;;;;;5.18;3.33;;;;;;;11.97;48.42;98480.84;4898497;29;20422;-95
2023/04/07 18:07:23;;;;;;;4.38;3.38;;;;;;;11.88;49.47;98488.28;4887821;29;20097;-92
2023/04/07 18:14:44;;;;;;;6.18;3.70;;;;;;;11.95;51.42;98527.97;4895106;29;20116;-93
2023/04/07 18:18:18;;;;;;;8.52;3.42;;;;;;;11.60;52.33;98491.03;4885468;29;20050;-92
2023/04/07 18:21:00;;;;;;;6.47;3.60;;;;;;;11.88;52.94;98540.66;4961230;28;20046;-93
2023/04/07 18:23:28;;;;;;;3.70;2.92;;;;;;;11.82;53.15;98527.53;4961896;28;20051;-93
2023/04/07 18:29:57;;;;;;;3.92;2.92;;;;;;;11.50;54.28;98514.44;4932413;28;20047;-93
2023/04/07 18:36:58;;;;;;;8.73;3.38;;;;;;;11.47;54.92;98513.66;4880482;29;20040;-93
2023/04/07 18:40:39;;;;;;;6.82;3.50;;;;;;;11.66;55.34;98564.50;4846552;29;20061;-94
2023/04/07 18:43:21;;;;;;;6.50;3.40;;;;;;;11.40;55.92;98536.97;4838202;29;20046;-92
2023/04/07 18:46:37;;;;;;;6.00;3.75;;;;;;;11.55;56.16;98579.97;4929206;29;20047;-93
2023/04/07 18:49:15;;;;;;;6.20;3.50;;;;;;;11.38;56.38;98559.25;4901985;29;20052;-94
2023/04/07 18:52:32;;;;;;;7.00;3.40;;;;;;;11.46;56.57;98575.84;4899522;29;20053;-93
2023/04/07 18:54:58;;;;;;;5.18;3.28;;;;;;;11.43;56.44;98575.97;4885285;29;20045;-94
2023/04/07 18:57:24;;;;;;;9.80;5.80;;;;;;;11.28;56.59;98566.69;4886941;29;20097;-93
2023/04/07 19:04:09;;;;;;;45.67;33.35;;;;;;;11.07;57.37;98555.81;4859228;29;20045;-94
2023/04/07 19:07:11;;;;;;;34.63;22.85;;;;;;;11.09;56.47;98540.66;4849909;29;20049;-93
2023/04/07 19:10:04;;;;;;;23.92;14.50;;;;;;;11.27;55.69;98586.22;4863958;29;20049;-94
2023/04/07 19:16:26;;;;;;;42.60;27.30;;;;;;;11.03;55.47;98588.75;4803768;29;20061;-92
2023/04/07 19:18:58;;;;;;;18.98;12.75;;;;;;;10.88;55.07;98557.31;4827048;29;20042;-93
2023/04/07 19:22:06;;;;;;;27.42;16.77;;;;;;;10.76;55.16;98563.91;4814347;29;20119;-93
2023/04/07 19:25:04;;;;;;;19.20;13.23;;;;;;;10.74;55.15;98587.03;4792138;29;20054;-93
2023/04/07 19:34:48;;;;;;;29.58;17.63;;;;;;;10.55;57.08;98599.13;4718518;30;20060;-93
2023/04/07 19:38:19;;;;;;;15.05;10.00;;;;;;;10.67;57.25;98649.31;4715234;30;20513;-92
2023/04/07 19:41:33;;;;;;;7.60;6.20;;;;;;;10.54;57.89;98637.25;4754049;30;20109;-94
2023/04/07 19:44:46;;;;;;;5.72;4.00;;;;;;;10.26;58.50;98603.47;4774687;30;20056;-94
2023/04/07 19:48:17;;;;;;;7.43;4.97;;;;;;;10.06;59.46;98596.94;4760435;30;20062;-91
2023/04/07 19:50:57;;;;;;;6.05;4.25;;;;;;;10.12;60.20;98635.72;4775446;30;20051;-95
2023/04/07 19:53:40;;;;;;;7.72;4.20;;;;;;;9.73;62.33;98605.81;4742028;30;20080;-94
2023/04/07 19:56:58;;;;;;;6.70;4.85;;;;;;;9.52;64.58;98624.03;4739671;30;20076;-94
2023/04/07 19:59:49;;;;;;;5.57;4.32;;;;;;;9.18;66.45;98613.38;4753178;30;20036;-94
2023/04/07 20:02:25;;;;;;;9.02;5.45;;;;;;;9.10;66.76;98624.16;4737817;30;20094;-94
2023/04/07 20:05:38;;;;;;;7.65;4.88;;;;;;;9.16;66.42;98660.28;4825512;29;20067;-91
2023/04/07 20:08:13;;;;;;;6.63;4.95;;;;;;;8.77;68.45;98621.38;4863208;29;20045;-92